sensor_id;sensor_type;location;lat;lon;timestamp;P1;durP1;ratioP1;P2;durP2;ratioP2
3781;SDS011;6881;49.962;7.718;2023-05-17T00:00:46;3.83;;;2.80;;
3781;SDS011;6881;49.962;7.718;2023-05-17T00:03:12;2.90;;;2.53;;
3781;SDS011;6881;49.962;7.718;2023-05-17T00:05:37;2.73;;;2.40;;
3781;SDS011;6881;49.962;7.718;2023-05-17T00:08:02;3.40;;;2.37;;
3781;SDS011;6881;49.962;7.718;2023-05-17T00:10:28;6.17;;;3.33;;
3781;SDS011;6881;49.962;7.718;2023-05-17T00:12:53;3.23;;;2.70;;
3781;SDS011;6881;49.962;7.718;2023-05-17T00:15:19;4.83;;;3.10;;
3781;SDS011;6881;49.962;7.718;2023-05-17T00:17:44;5.37;;;3.30;;
3781;SDS011;6881;49.962;7.718;2023-05-17T00:20:10;7.43;;;3.37;;
3781;SDS011;6881;49.962;7.718;2023-05-17T00:22:36;3.87;;;2.70;;
3781;SDS011;6881;49.962;7.718;2023-05-17T00:25:01;5.67;;;3.30;;
3781;SDS011;6881;49.962;7.718;2023-05-17T00:27:27;5.23;;;2.80;;
3781;SDS011;6881;49.962;7.718;2023-05-17T00:29:52;5.20;;;2.43;;
3781;SDS011;6881;49.962;7.718;2023-05-17T00:32:17;4.37;;;2.23;;
3781;SDS011;6881;49.962;7.718;2023-05-17T00:34:43;5.07;;;3.27;;
3781;SDS011;6881;49.962;7.718;2023-05-17T00:37:08;7.30;;;3.03;;
3781;SDS011;6881;49.962;7.718;2023-05-17T00:39:33;4.13;;;3.00;;
3781;SDS011;6881;49.962;7.718;2023-05-17T00:41:59;3.37;;;2.40;;
3781;SDS011;6881;49.962;7.718;2023-05-17T00:44:25;6.00;;;3.10;;
3781;SDS011;6881;49.962;7.718;2023-05-17T00:46:50;5.63;;;2.37;;
3781;SDS011;6881;49.962;7.718;2023-05-17T00:49:16;5.30;;;2.50;;
3781;SDS011;6881;49.962;7.718;2023-05-17T00:51:41;8.03;;;2.90;;
3781;SDS011;6881;49.962;7.718;2023-05-17T00:54:06;4.40;;;2.10;;
3781;SDS011;6881;49.962;7.718;2023-05-17T00:56:32;3.63;;;2.90;;
3781;SDS011;6881;49.962;7.718;2023-05-17T00:58:57;4.70;;;2.20;;
3781;SDS011;6881;49.962;7.718;2023-05-17T01:01:22;8.13;;;3.00;;
3781;SDS011;6881;49.962;7.718;2023-05-17T01:03:49;5.67;;;2.83;;
3781;SDS011;6881;49.962;7.718;2023-05-17T01:06:15;3.63;;;2.30;;
3781;SDS011;6881;49.962;7.718;2023-05-17T01:08:41;2.50;;;1.90;;
3781;SDS011;6881;49.962;7.718;2023-05-17T01:20:04;5.43;;;2.93;;
3781;SDS011;6881;49.962;7.718;2023-05-17T01:22:43;7.23;;;3.03;;
3781;SDS011;6881;49.962;7.718;2023-05-17T01:27:48;6.33;;;3.00;;
3781;SDS011;6881;49.962;7.718;2023-05-17T01:30:14;5.73;;;2.50;;
3781;SDS011;6881;49.962;7.718;2023-05-17T01:32:42;2.73;;;2.10;;
3781;SDS011;6881;49.962;7.718;2023-05-17T01:35:08;3.73;;;2.37;;
3781;SDS011;6881;49.962;7.718;2023-05-17T01:37:35;9.03;;;2.93;;
3781;SDS011;6881;49.962;7.718;2023-05-17T01:40:00;5.70;;;2.60;;
3781;SDS011;6881;49.962;7.718;2023-05-17T01:42:28;4.33;;;2.90;;
3781;SDS011;6881;49.962;7.718;2023-05-17T01:50:18;4.53;;;2.50;;
3781;SDS011;6881;49.962;7.718;2023-05-17T01:52:49;5.30;;;2.00;;
3781;SDS011;6881;49.962;7.718;2023-05-17T01:55:40;4.00;;;3.03;;
3781;SDS011;6881;49.962;7.718;2023-05-17T01:58:06;4.23;;;2.70;;
3781;SDS011;6881;49.962;7.718;2023-05-17T02:00:32;5.90;;;2.40;;
3781;SDS011;6881;49.962;7.718;2023-05-17T02:02:57;3.27;;;2.40;;
3781;SDS011;6881;49.962;7.718;2023-05-17T02:05:23;3.53;;;3.13;;
3781;SDS011;6881;49.962;7.718;2023-05-17T02:07:48;6.10;;;2.30;;
3781;SDS011;6881;49.962;7.718;2023-05-17T02:10:13;3.77;;;2.23;;
3781;SDS011;6881;49.962;7.718;2023-05-17T02:12:39;5.10;;;2.03;;
3781;SDS011;6881;49.962;7.718;2023-05-17T02:15:05;3.90;;;2.37;;
3781;SDS011;6881;49.962;7.718;2023-05-17T02:17:32;4.10;;;2.20;;
3781;SDS011;6881;49.962;7.718;2023-05-17T02:19:57;3.70;;;2.50;;
3781;SDS011;6881;49.962;7.718;2023-05-17T02:22:23;3.93;;;2.40;;
3781;SDS011;6881;49.962;7.718;2023-05-17T02:24:48;3.97;;;2.33;;
3781;SDS011;6881;49.962;7.718;2023-05-17T02:27:13;5.87;;;2.80;;
3781;SDS011;6881;49.962;7.718;2023-05-17T02:29:39;5.53;;;3.30;;
3781;SDS011;6881;49.962;7.718;2023-05-17T02:32:04;2.93;;;2.63;;
3781;SDS011;6881;49.962;7.718;2023-05-17T02:34:30;7.83;;;2.80;;
3781;SDS011;6881;49.962;7.718;2023-05-17T02:36:55;5.30;;;2.50;;
3781;SDS011;6881;49.962;7.718;2023-05-17T02:39:21;5.73;;;2.70;;
3781;SDS011;6881;49.962;7.718;2023-05-17T02:41:46;6.13;;;3.03;;
3781;SDS011;6881;49.962;7.718;2023-05-17T02:44:11;2.40;;;2.03;;
3781;SDS011;6881;49.962;7.718;2023-05-17T02:46:37;5.10;;;2.30;;
3781;SDS011;6881;49.962;7.718;2023-05-17T02:49:02;10.57;;;2.40;;
3781;SDS011;6881;49.962;7.718;2023-05-17T02:51:27;4.27;;;2.63;;
3781;SDS011;6881;49.962;7.718;2023-05-17T02:53:53;3.43;;;2.20;;
3781;SDS011;6881;49.962;7.718;2023-05-17T02:56:18;4.60;;;2.17;;
3781;SDS011;6881;49.962;7.718;2023-05-17T02:58:43;3.93;;;2.50;;
3781;SDS011;6881;49.962;7.718;2023-05-17T03:01:08;6.90;;;3.00;;
3781;SDS011;6881;49.962;7.718;2023-05-17T03:03:34;3.57;;;2.60;;
3781;SDS011;6881;49.962;7.718;2023-05-17T03:06:00;8.77;;;2.60;;
3781;SDS011;6881;49.962;7.718;2023-05-17T03:08:25;3.63;;;2.23;;
3781;SDS011;6881;49.962;7.718;2023-05-17T03:10:51;5.50;;;2.80;;
3781;SDS011;6881;49.962;7.718;2023-05-17T03:13:16;11.80;;;2.73;;
3781;SDS011;6881;49.962;7.718;2023-05-17T03:15:41;10.07;;;3.10;;
3781;SDS011;6881;49.962;7.718;2023-05-17T03:18:07;6.83;;;3.20;;
3781;SDS011;6881;49.962;7.718;2023-05-17T03:20:32;5.20;;;3.03;;
3781;SDS011;6881;49.962;7.718;2023-05-17T03:22:57;2.87;;;2.53;;
3781;SDS011;6881;49.962;7.718;2023-05-17T03:25:23;4.87;;;3.10;;
3781;SDS011;6881;49.962;7.718;2023-05-17T03:27:48;3.80;;;2.93;;
3781;SDS011;6881;49.962;7.718;2023-05-17T03:30:13;5.70;;;3.43;;
3781;SDS011;6881;49.962;7.718;2023-05-17T03:32:39;6.87;;;3.00;;
3781;SDS011;6881;49.962;7.718;2023-05-17T03:35:05;3.23;;;2.73;;
3781;SDS011;6881;49.962;7.718;2023-05-17T03:37:30;10.13;;;3.43;;
3781;SDS011;6881;49.962;7.718;2023-05-17T03:39:56;7.93;;;3.60;;
3781;SDS011;6881;49.962;7.718;2023-05-17T03:42:21;4.47;;;3.27;;
3781;SDS011;6881;49.962;7.718;2023-05-17T03:44:46;8.73;;;3.70;;
3781;SDS011;6881;49.962;7.718;2023-05-17T03:47:12;10.27;;;3.93;;
3781;SDS011;6881;49.962;7.718;2023-05-17T03:49:37;6.70;;;4.00;;
3781;SDS011;6881;49.962;7.718;2023-05-17T03:52:02;4.60;;;3.70;;
3781;SDS011;6881;49.962;7.718;2023-05-17T03:54:28;7.03;;;4.00;;
3781;SDS011;6881;49.962;7.718;2023-05-17T03:56:53;5.33;;;3.70;;
3781;SDS011;6881;49.962;7.718;2023-05-17T03:59:19;9.83;;;4.47;;
3781;SDS011;6881;49.962;7.718;2023-05-17T04:01:44;9.97;;;4.23;;
3781;SDS011;6881;49.962;7.718;2023-05-17T04:04:10;5.80;;;4.20;;
3781;SDS011;6881;49.962;7.718;2023-05-17T04:06:35;4.53;;;3.87;;
3781;SDS011;6881;49.962;7.718;2023-05-17T04:09:01;6.60;;;4.30;;
3781;SDS011;6881;49.962;7.718;2023-05-17T04:11:26;7.73;;;4.77;;
3781;SDS011;6881;49.962;7.718;2023-05-17T04:13:52;8.03;;;5.20;;
3781;SDS011;6881;49.962;7.718;2023-05-17T04:16:18;7.33;;;4.90;;
3781;SDS011;6881;49.962;7.718;2023-05-17T04:18:44;6.73;;;3.97;;
3781;SDS011;6881;49.962;7.718;2023-05-17T04:21:09;8.40;;;4.33;;
3781;SDS011;6881;49.962;7.718;2023-05-17T04:23:35;4.90;;;3.40;;
3781;SDS011;6881;49.962;7.718;2023-05-17T04:26:00;5.20;;;3.77;;
3781;SDS011;6881;49.962;7.718;2023-05-17T04:28:27;4.23;;;2.87;;
3781;SDS011;6881;49.962;7.718;2023-05-17T04:30:52;6.03;;;4.00;;
3781;SDS011;6881;49.962;7.718;2023-05-17T04:33:18;5.37;;;3.50;;
3781;SDS011;6881;49.962;7.718;2023-05-17T04:35:44;4.70;;;3.60;;
3781;SDS011;6881;49.962;7.718;2023-05-17T04:38:09;5.77;;;3.73;;
3781;SDS011;6881;49.962;7.718;2023-05-17T04:40:36;6.30;;;3.47;;
3781;SDS011;6881;49.962;7.718;2023-05-17T04:43:01;9.17;;;3.53;;
3781;SDS011;6881;49.962;7.718;2023-05-17T04:45:27;7.00;;;3.27;;
3781;SDS011;6881;49.962;7.718;2023-05-17T04:47:52;8.47;;;3.87;;
3781;SDS011;6881;49.962;7.718;2023-05-17T04:50:18;6.27;;;4.23;;
3781;SDS011;6881;49.962;7.718;2023-05-17T04:52:44;7.77;;;5.00;;
3781;SDS011;6881;49.962;7.718;2023-05-17T04:55:10;6.53;;;4.40;;
3781;SDS011;6881;49.962;7.718;2023-05-17T04:57:36;6.90;;;4.57;;
3781;SDS011;6881;49.962;7.718;2023-05-17T05:00:01;8.30;;;4.50;;
3781;SDS011;6881;49.962;7.718;2023-05-17T05:02:30;8.33;;;5.10;;
3781;SDS011;6881;49.962;7.718;2023-05-17T05:04:55;9.13;;;4.70;;
3781;SDS011;6881;49.962;7.718;2023-05-17T05:07:20;6.77;;;5.33;;
3781;SDS011;6881;49.962;7.718;2023-05-17T05:09:46;7.10;;;5.33;;
3781;SDS011;6881;49.962;7.718;2023-05-17T05:12:11;10.70;;;5.60;;
3781;SDS011;6881;49.962;7.718;2023-05-17T05:14:36;10.33;;;5.43;;
3781;SDS011;6881;49.962;7.718;2023-05-17T05:17:02;7.33;;;5.67;;
3781;SDS011;6881;49.962;7.718;2023-05-17T05:19:27;8.20;;;5.83;;
3781;SDS011;6881;49.962;7.718;2023-05-17T05:21:53;13.27;;;6.03;;
3781;SDS011;6881;49.962;7.718;2023-05-17T05:24:18;9.27;;;5.50;;
3781;SDS011;6881;49.962;7.718;2023-05-17T05:26:43;8.67;;;5.63;;
3781;SDS011;6881;49.962;7.718;2023-05-17T05:29:09;10.23;;;6.17;;
3781;SDS011;6881;49.962;7.718;2023-05-17T05:31:35;9.00;;;5.90;;
3781;SDS011;6881;49.962;7.718;2023-05-17T05:34:00;11.27;;;5.70;;
3781;SDS011;6881;49.962;7.718;2023-05-17T05:36:25;13.33;;;6.00;;
3781;SDS011;6881;49.962;7.718;2023-05-17T05:38:51;10.93;;;5.90;;
3781;SDS011;6881;49.962;7.718;2023-05-17T05:41:18;8.37;;;5.40;;
3781;SDS011;6881;49.962;7.718;2023-05-17T05:43:43;9.20;;;5.73;;
3781;SDS011;6881;49.962;7.718;2023-05-17T05:46:09;13.83;;;7.10;;
3781;SDS011;6881;49.962;7.718;2023-05-17T05:48:34;10.93;;;7.13;;
3781;SDS011;6881;49.962;7.718;2023-05-17T05:51:03;11.13;;;7.20;;
3781;SDS011;6881;49.962;7.718;2023-05-17T05:53:28;10.70;;;6.10;;
3781;SDS011;6881;49.962;7.718;2023-05-17T05:55:54;11.87;;;7.67;;
3781;SDS011;6881;49.962;7.718;2023-05-17T05:58:19;11.50;;;6.67;;
3781;SDS011;6881;49.962;7.718;2023-05-17T06:00:45;11.63;;;6.50;;
3781;SDS011;6881;49.962;7.718;2023-05-17T06:03:10;11.67;;;7.40;;
3781;SDS011;6881;49.962;7.718;2023-05-17T06:05:35;9.43;;;6.90;;
3781;SDS011;6881;49.962;7.718;2023-05-17T06:08:01;12.60;;;7.80;;
3781;SDS011;6881;49.962;7.718;2023-05-17T06:10:26;11.53;;;7.27;;
3781;SDS011;6881;49.962;7.718;2023-05-17T06:12:51;9.83;;;6.80;;
3781;SDS011;6881;49.962;7.718;2023-05-17T06:15:17;10.80;;;7.07;;
3781;SDS011;6881;49.962;7.718;2023-05-17T06:17:42;11.30;;;8.53;;
3781;SDS011;6881;49.962;7.718;2023-05-17T06:20:08;10.97;;;6.80;;
3781;SDS011;6881;49.962;7.718;2023-05-17T06:22:33;10.73;;;8.03;;
3781;SDS011;6881;49.962;7.718;2023-05-17T06:24:59;14.40;;;10.40;;
3781;SDS011;6881;49.962;7.718;2023-05-17T06:27:25;18.50;;;7.03;;
3781;SDS011;6881;49.962;7.718;2023-05-17T06:29:50;11.33;;;6.73;;
3781;SDS011;6881;49.962;7.718;2023-05-17T06:32:16;11.00;;;6.47;;
3781;SDS011;6881;49.962;7.718;2023-05-17T06:34:41;9.70;;;7.10;;
3781;SDS011;6881;49.962;7.718;2023-05-17T06:37:06;17.40;;;7.47;;
3781;SDS011;6881;49.962;7.718;2023-05-17T06:39:31;11.70;;;6.70;;
3781;SDS011;6881;49.962;7.718;2023-05-17T06:41:57;14.70;;;6.83;;
3781;SDS011;6881;49.962;7.718;2023-05-17T06:44:22;12.47;;;6.70;;
3781;SDS011;6881;49.962;7.718;2023-05-17T06:46:47;8.63;;;5.60;;
3781;SDS011;6881;49.962;7.718;2023-05-17T06:49:13;8.77;;;4.80;;
3781;SDS011;6881;49.962;7.718;2023-05-17T06:51:38;10.23;;;5.10;;
3781;SDS011;6881;49.962;7.718;2023-05-17T06:54:03;7.83;;;5.10;;
3781;SDS011;6881;49.962;7.718;2023-05-17T06:56:29;13.80;;;5.80;;
3781;SDS011;6881;49.962;7.718;2023-05-17T06:58:55;10.83;;;6.00;;
3781;SDS011;6881;49.962;7.718;2023-05-17T07:01:20;7.00;;;4.40;;
3781;SDS011;6881;49.962;7.718;2023-05-17T07:03:46;9.50;;;6.73;;
3781;SDS011;6881;49.962;7.718;2023-05-17T07:06:11;9.33;;;5.37;;
3781;SDS011;6881;49.962;7.718;2023-05-17T07:08:37;6.97;;;5.40;;
3781;SDS011;6881;49.962;7.718;2023-05-17T07:11:02;8.43;;;4.53;;
3781;SDS011;6881;49.962;7.718;2023-05-17T07:13:28;7.73;;;4.83;;
3781;SDS011;6881;49.962;7.718;2023-05-17T07:15:54;9.90;;;7.17;;
3781;SDS011;6881;49.962;7.718;2023-05-17T07:18:19;8.07;;;5.03;;
3781;SDS011;6881;49.962;7.718;2023-05-17T07:20:45;9.13;;;4.77;;
3781;SDS011;6881;49.962;7.718;2023-05-17T07:23:10;10.57;;;5.20;;
3781;SDS011;6881;49.962;7.718;2023-05-17T07:25:35;5.73;;;3.90;;
3781;SDS011;6881;49.962;7.718;2023-05-17T07:28:04;7.67;;;4.00;;
3781;SDS011;6881;49.962;7.718;2023-05-17T07:30:30;6.07;;;4.03;;
3781;SDS011;6881;49.962;7.718;2023-05-17T07:32:55;8.70;;;5.97;;
3781;SDS011;6881;49.962;7.718;2023-05-17T07:35:21;8.53;;;4.67;;
3781;SDS011;6881;49.962;7.718;2023-05-17T07:37:46;6.00;;;3.97;;
3781;SDS011;6881;49.962;7.718;2023-05-17T07:40:11;10.23;;;4.70;;
3781;SDS011;6881;49.962;7.718;2023-05-17T07:42:37;8.80;;;4.20;;
3781;SDS011;6881;49.962;7.718;2023-05-17T07:45:02;7.97;;;4.40;;
3781;SDS011;6881;49.962;7.718;2023-05-17T07:47:28;8.00;;;4.80;;
3781;SDS011;6881;49.962;7.718;2023-05-17T07:49:53;8.03;;;4.20;;
3781;SDS011;6881;49.962;7.718;2023-05-17T07:52:19;7.13;;;4.60;;
3781;SDS011;6881;49.962;7.718;2023-05-17T07:54:44;8.60;;;4.70;;
3781;SDS011;6881;49.962;7.718;2023-05-17T07:57:09;11.07;;;3.70;;
3781;SDS011;6881;49.962;7.718;2023-05-17T07:59:35;6.70;;;4.63;;
3781;SDS011;6881;49.962;7.718;2023-05-17T08:02:01;8.80;;;4.63;;
3781;SDS011;6881;49.962;7.718;2023-05-17T08:04:26;7.73;;;4.20;;
3781;SDS011;6881;49.962;7.718;2023-05-17T08:06:51;8.87;;;4.30;;
3781;SDS011;6881;49.962;7.718;2023-05-17T08:09:17;4.40;;;3.93;;
3781;SDS011;6881;49.962;7.718;2023-05-17T08:11:43;4.40;;;3.60;;
3781;SDS011;6881;49.962;7.718;2023-05-17T08:14:12;5.80;;;3.63;;
3781;SDS011;6881;49.962;7.718;2023-05-17T08:16:39;10.13;;;5.13;;
3781;SDS011;6881;49.962;7.718;2023-05-17T08:19:04;9.23;;;4.90;;
3781;SDS011;6881;49.962;7.718;2023-05-17T08:21:30;7.63;;;4.73;;
3781;SDS011;6881;49.962;7.718;2023-05-17T08:23:55;7.37;;;5.00;;
3781;SDS011;6881;49.962;7.718;2023-05-17T08:26:21;7.40;;;5.10;;
3781;SDS011;6881;49.962;7.718;2023-05-17T08:28:46;7.40;;;4.80;;
3781;SDS011;6881;49.962;7.718;2023-05-17T08:31:11;8.00;;;5.27;;
3781;SDS011;6881;49.962;7.718;2023-05-17T08:33:37;7.00;;;5.20;;
3781;SDS011;6881;49.962;7.718;2023-05-17T08:36:02;10.00;;;5.37;;
3781;SDS011;6881;49.962;7.718;2023-05-17T08:38:31;9.90;;;5.80;;
3781;SDS011;6881;49.962;7.718;2023-05-17T08:40:58;5.33;;;4.20;;
3781;SDS011;6881;49.962;7.718;2023-05-17T08:43:23;8.40;;;5.03;;
3781;SDS011;6881;49.962;7.718;2023-05-17T08:45:49;7.27;;;5.07;;
3781;SDS011;6881;49.962;7.718;2023-05-17T08:48:14;7.87;;;5.00;;
3781;SDS011;6881;49.962;7.718;2023-05-17T08:50:46;9.33;;;5.20;;
3781;SDS011;6881;49.962;7.718;2023-05-17T08:53:14;5.67;;;4.67;;
3781;SDS011;6881;49.962;7.718;2023-05-17T08:55:41;6.90;;;4.60;;
3781;SDS011;6881;49.962;7.718;2023-05-17T08:58:12;8.13;;;4.67;;
3781;SDS011;6881;49.962;7.718;2023-05-17T09:00:38;10.00;;;5.47;;
3781;SDS011;6881;49.962;7.718;2023-05-17T09:03:04;8.30;;;4.90;;
3781;SDS011;6881;49.962;7.718;2023-05-17T09:05:30;5.17;;;4.33;;
3781;SDS011;6881;49.962;7.718;2023-05-17T09:07:55;7.33;;;5.23;;
3781;SDS011;6881;49.962;7.718;2023-05-17T09:10:21;4.60;;;4.20;;
3781;SDS011;6881;49.962;7.718;2023-05-17T09:12:47;5.40;;;4.40;;
3781;SDS011;6881;49.962;7.718;2023-05-17T09:15:13;5.50;;;4.20;;
3781;SDS011;6881;49.962;7.718;2023-05-17T09:17:42;9.03;;;4.37;;
3781;SDS011;6881;49.962;7.718;2023-05-17T09:20:20;6.60;;;5.20;;
3781;SDS011;6881;49.962;7.718;2023-05-17T09:22:48;9.37;;;5.77;;
3781;SDS011;6881;49.962;7.718;2023-05-17T09:25:17;9.17;;;5.47;;
3781;SDS011;6881;49.962;7.718;2023-05-17T09:27:43;8.67;;;5.20;;
3781;SDS011;6881;49.962;7.718;2023-05-17T09:30:09;8.90;;;5.63;;
3781;SDS011;6881;49.962;7.718;2023-05-17T09:32:35;6.43;;;4.90;;
3781;SDS011;6881;49.962;7.718;2023-05-17T09:35:08;10.57;;;6.03;;
3781;SDS011;6881;49.962;7.718;2023-05-17T09:37:34;9.77;;;5.87;;
3781;SDS011;6881;49.962;7.718;2023-05-17T09:40:01;7.63;;;6.30;;
3781;SDS011;6881;49.962;7.718;2023-05-17T09:42:28;11.57;;;6.73;;
3781;SDS011;6881;49.962;7.718;2023-05-17T09:44:54;8.47;;;5.63;;
3781;SDS011;6881;49.962;7.718;2023-05-17T09:47:27;8.17;;;7.03;;
3781;SDS011;6881;49.962;7.718;2023-05-17T09:49:55;8.37;;;6.47;;
3781;SDS011;6881;49.962;7.718;2023-05-17T09:52:22;7.17;;;5.60;;
3781;SDS011;6881;49.962;7.718;2023-05-17T09:54:51;6.10;;;4.87;;
3781;SDS011;6881;49.962;7.718;2023-05-17T09:57:20;6.43;;;5.73;;
3781;SDS011;6881;49.962;7.718;2023-05-17T09:59:45;10.60;;;7.33;;
3781;SDS011;6881;49.962;7.718;2023-05-17T10:02:21;7.80;;;5.03;;
3781;SDS011;6881;49.962;7.718;2023-05-17T10:04:49;10.10;;;5.40;;
3781;SDS011;6881;49.962;7.718;2023-05-17T10:07:19;6.23;;;4.33;;
3781;SDS011;6881;49.962;7.718;2023-05-17T10:09:48;8.10;;;4.90;;
3781;SDS011;6881;49.962;7.718;2023-05-17T10:12:17;9.13;;;4.90;;
3781;SDS011;6881;49.962;7.718;2023-05-17T10:14:45;6.70;;;5.50;;
3781;SDS011;6881;49.962;7.718;2023-05-17T10:17:11;7.97;;;5.27;;
3781;SDS011;6881;49.962;7.718;2023-05-17T10:19:38;6.90;;;6.30;;
3781;SDS011;6881;49.962;7.718;2023-05-17T10:22:03;8.57;;;6.00;;
3781;SDS011;6881;49.962;7.718;2023-05-17T10:24:30;6.80;;;5.40;;
3781;SDS011;6881;49.962;7.718;2023-05-17T10:26:56;7.13;;;5.40;;
3781;SDS011;6881;49.962;7.718;2023-05-17T10:29:22;7.83;;;5.53;;
3781;SDS011;6881;49.962;7.718;2023-05-17T10:31:48;7.70;;;6.07;;
3781;SDS011;6881;49.962;7.718;2023-05-17T10:34:17;8.90;;;6.77;;
3781;SDS011;6881;49.962;7.718;2023-05-17T10:36:43;6.87;;;5.80;;
3781;SDS011;6881;49.962;7.718;2023-05-17T10:39:09;9.23;;;6.13;;
3781;SDS011;6881;49.962;7.718;2023-05-17T10:41:35;5.73;;;4.57;;
3781;SDS011;6881;49.962;7.718;2023-05-17T10:44:04;8.80;;;5.10;;
3781;SDS011;6881;49.962;7.718;2023-05-17T10:46:32;8.80;;;5.50;;
3781;SDS011;6881;49.962;7.718;2023-05-17T10:48:58;7.10;;;5.80;;
3781;SDS011;6881;49.962;7.718;2023-05-17T10:51:25;6.53;;;4.87;;
3781;SDS011;6881;49.962;7.718;2023-05-17T10:56:26;8.20;;;5.73;;
3781;SDS011;6881;49.962;7.718;2023-05-17T10:59:12;9.30;;;5.80;;
3781;SDS011;6881;49.962;7.718;2023-05-17T11:09:52;7.23;;;5.73;;
3781;SDS011;6881;49.962;7.718;2023-05-17T11:15:06;8.63;;;5.23;;
3781;SDS011;6881;49.962;7.718;2023-05-17T11:17:33;5.93;;;4.50;;
3781;SDS011;6881;49.962;7.718;2023-05-17T11:20:00;5.93;;;4.70;;
3781;SDS011;6881;49.962;7.718;2023-05-17T11:22:37;8.63;;;4.50;;
3781;SDS011;6881;49.962;7.718;2023-05-17T11:25:05;4.83;;;4.20;;
3781;SDS011;6881;49.962;7.718;2023-05-17T11:32:56;6.80;;;4.63;;
3781;SDS011;6881;49.962;7.718;2023-05-17T11:35:36;6.67;;;4.87;;
3781;SDS011;6881;49.962;7.718;2023-05-17T11:40:48;7.20;;;4.50;;
3781;SDS011;6881;49.962;7.718;2023-05-17T11:43:23;8.17;;;5.73;;
3781;SDS011;6881;49.962;7.718;2023-05-17T11:48:16;8.20;;;5.40;;
3781;SDS011;6881;49.962;7.718;2023-05-17T11:50:44;8.37;;;6.27;;
3781;SDS011;6881;49.962;7.718;2023-05-17T11:53:10;6.53;;;5.43;;
3781;SDS011;6881;49.962;7.718;2023-05-17T11:55:37;9.13;;;4.90;;
3781;SDS011;6881;49.962;7.718;2023-05-17T11:58:13;7.53;;;4.80;;
3781;SDS011;6881;49.962;7.718;2023-05-17T12:00:39;7.00;;;4.00;;
3781;SDS011;6881;49.962;7.718;2023-05-17T12:03:18;7.77;;;4.20;;
3781;SDS011;6881;49.962;7.718;2023-05-17T12:05:46;5.07;;;3.73;;
3781;SDS011;6881;49.962;7.718;2023-05-17T12:08:14;5.20;;;3.50;;
3781;SDS011;6881;49.962;7.718;2023-05-17T12:10:46;6.73;;;6.13;;
3781;SDS011;6881;49.962;7.718;2023-05-17T12:13:13;5.90;;;3.47;;
3781;SDS011;6881;49.962;7.718;2023-05-17T12:15:38;7.30;;;4.00;;
3781;SDS011;6881;49.962;7.718;2023-05-17T12:18:04;4.83;;;3.50;;
3781;SDS011;6881;49.962;7.718;2023-05-17T12:20:29;5.90;;;3.60;;
3781;SDS011;6881;49.962;7.718;2023-05-17T12:22:56;4.87;;;3.67;;
3781;SDS011;6881;49.962;7.718;2023-05-17T12:25:22;5.20;;;3.67;;
3781;SDS011;6881;49.962;7.718;2023-05-17T12:27:53;5.23;;;2.90;;
3781;SDS011;6881;49.962;7.718;2023-05-17T12:30:18;3.10;;;2.80;;
3781;SDS011;6881;49.962;7.718;2023-05-17T12:32:44;3.77;;;3.00;;
3781;SDS011;6881;49.962;7.718;2023-05-17T12:35:10;8.37;;;3.50;;
3781;SDS011;6881;49.962;7.718;2023-05-17T12:37:36;3.90;;;2.97;;
3781;SDS011;6881;49.962;7.718;2023-05-17T12:40:01;3.97;;;2.90;;
3781;SDS011;6881;49.962;7.718;2023-05-17T12:42:29;8.10;;;3.40;;
3781;SDS011;6881;49.962;7.718;2023-05-17T12:44:57;7.50;;;3.17;;
3781;SDS011;6881;49.962;7.718;2023-05-17T12:47:24;3.50;;;2.10;;
3781;SDS011;6881;49.962;7.718;2023-05-17T12:49:51;7.37;;;3.33;;
3781;SDS011;6881;49.962;7.718;2023-05-17T12:52:18;4.47;;;2.67;;
3781;SDS011;6881;49.962;7.718;2023-05-17T12:54:43;8.40;;;3.63;;
3781;SDS011;6881;49.962;7.718;2023-05-17T12:57:12;5.63;;;3.70;;
3781;SDS011;6881;49.962;7.718;2023-05-17T12:59:50;3.53;;;2.63;;
3781;SDS011;6881;49.962;7.718;2023-05-17T13:02:17;6.77;;;3.23;;
3781;SDS011;6881;49.962;7.718;2023-05-17T13:04:43;4.53;;;2.70;;
3781;SDS011;6881;49.962;7.718;2023-05-17T13:07:10;4.20;;;2.70;;
3781;SDS011;6881;49.962;7.718;2023-05-17T13:09:44;3.03;;;2.30;;
3781;SDS011;6881;49.962;7.718;2023-05-17T13:12:16;3.90;;;2.13;;
3781;SDS011;6881;49.962;7.718;2023-05-17T13:14:44;5.43;;;2.57;;
3781;SDS011;6881;49.962;7.718;2023-05-17T13:17:11;4.93;;;2.40;;
3781;SDS011;6881;49.962;7.718;2023-05-17T13:19:46;4.80;;;2.20;;
3781;SDS011;6881;49.962;7.718;2023-05-17T13:22:12;4.33;;;2.60;;
3781;SDS011;6881;49.962;7.718;2023-05-17T13:24:38;9.37;;;2.97;;
3781;SDS011;6881;49.962;7.718;2023-05-17T13:27:04;6.27;;;2.20;;
3781;SDS011;6881;49.962;7.718;2023-05-17T13:29:31;5.43;;;2.57;;
3781;SDS011;6881;49.962;7.718;2023-05-17T13:31:57;5.00;;;2.20;;
3781;SDS011;6881;49.962;7.718;2023-05-17T13:34:22;4.93;;;2.30;;
3781;SDS011;6881;49.962;7.718;2023-05-17T13:36:48;7.50;;;2.77;;
3781;SDS011;6881;49.962;7.718;2023-05-17T13:39:14;5.13;;;2.87;;
3781;SDS011;6881;49.962;7.718;2023-05-17T13:41:40;12.20;;;5.60;;
3781;SDS011;6881;49.962;7.718;2023-05-17T13:44:05;12.90;;;8.07;;
3781;SDS011;6881;49.962;7.718;2023-05-17T13:46:31;5.50;;;2.97;;
3781;SDS011;6881;49.962;7.718;2023-05-17T13:48:56;5.80;;;2.90;;
3781;SDS011;6881;49.962;7.718;2023-05-17T13:51:22;4.33;;;2.40;;
3781;SDS011;6881;49.962;7.718;2023-05-17T13:53:47;4.30;;;3.30;;
3781;SDS011;6881;49.962;7.718;2023-05-17T13:56:12;3.50;;;2.40;;
3781;SDS011;6881;49.962;7.718;2023-05-17T13:58:38;5.83;;;2.67;;
3781;SDS011;6881;49.962;7.718;2023-05-17T14:01:03;4.47;;;2.00;;
3781;SDS011;6881;49.962;7.718;2023-05-17T14:03:28;5.40;;;2.60;;
3781;SDS011;6881;49.962;7.718;2023-05-17T14:05:54;6.40;;;2.40;;
3781;SDS011;6881;49.962;7.718;2023-05-17T14:08:19;7.47;;;2.90;;
3781;SDS011;6881;49.962;7.718;2023-05-17T14:10:45;4.90;;;2.10;;
3781;SDS011;6881;49.962;7.718;2023-05-17T14:13:10;4.20;;;2.53;;
3781;SDS011;6881;49.962;7.718;2023-05-17T14:15:37;5.90;;;2.50;;
3781;SDS011;6881;49.962;7.718;2023-05-17T14:18:03;7.03;;;3.33;;
3781;SDS011;6881;49.962;7.718;2023-05-17T14:20:29;4.60;;;2.60;;
3781;SDS011;6881;49.962;7.718;2023-05-17T14:22:55;3.20;;;1.77;;
3781;SDS011;6881;49.962;7.718;2023-05-17T14:25:20;4.00;;;2.47;;
3781;SDS011;6881;49.962;7.718;2023-05-17T14:27:46;3.70;;;2.20;;
3781;SDS011;6881;49.962;7.718;2023-05-17T14:30:12;3.73;;;2.77;;
3781;SDS011;6881;49.962;7.718;2023-05-17T14:32:37;5.93;;;2.37;;
3781;SDS011;6881;49.962;7.718;2023-05-17T14:35:04;5.57;;;2.50;;
3781;SDS011;6881;49.962;7.718;2023-05-17T14:37:30;5.33;;;2.53;;
3781;SDS011;6881;49.962;7.718;2023-05-17T14:39:56;5.63;;;2.80;;
3781;SDS011;6881;49.962;7.718;2023-05-17T14:42:21;5.20;;;2.60;;
3781;SDS011;6881;49.962;7.718;2023-05-17T14:44:46;5.77;;;2.83;;
3781;SDS011;6881;49.962;7.718;2023-05-17T14:47:12;5.23;;;2.83;;
3781;SDS011;6881;49.962;7.718;2023-05-17T14:49:37;7.53;;;2.90;;
3781;SDS011;6881;49.962;7.718;2023-05-17T14:52:02;4.40;;;2.03;;
3781;SDS011;6881;49.962;7.718;2023-05-17T14:54:28;3.73;;;2.40;;
3781;SDS011;6881;49.962;7.718;2023-05-17T14:56:54;4.87;;;1.97;;
3781;SDS011;6881;49.962;7.718;2023-05-17T14:59:20;5.00;;;2.37;;
3781;SDS011;6881;49.962;7.718;2023-05-17T15:01:45;3.40;;;2.43;;
3781;SDS011;6881;49.962;7.718;2023-05-17T15:04:11;4.40;;;3.07;;
3781;SDS011;6881;49.962;7.718;2023-05-17T15:06:37;5.27;;;3.17;;
3781;SDS011;6881;49.962;7.718;2023-05-17T15:09:02;5.60;;;2.53;;
3781;SDS011;6881;49.962;7.718;2023-05-17T15:11:28;4.20;;;3.00;;
3781;SDS011;6881;49.962;7.718;2023-05-17T15:13:54;6.63;;;3.13;;
3781;SDS011;6881;49.962;7.718;2023-05-17T15:16:20;5.43;;;2.70;;
3781;SDS011;6881;49.962;7.718;2023-05-17T15:18:45;5.10;;;2.60;;
3781;SDS011;6881;49.962;7.718;2023-05-17T15:21:11;6.23;;;2.90;;
3781;SDS011;6881;49.962;7.718;2023-05-17T15:23:36;3.07;;;1.90;;
3781;SDS011;6881;49.962;7.718;2023-05-17T15:26:02;5.60;;;3.10;;
3781;SDS011;6881;49.962;7.718;2023-05-17T15:28:27;4.53;;;2.00;;
3781;SDS011;6881;49.962;7.718;2023-05-17T15:31:00;4.27;;;2.60;;
3781;SDS011;6881;49.962;7.718;2023-05-17T15:33:26;2.80;;;2.00;;
3781;SDS011;6881;49.962;7.718;2023-05-17T15:35:51;4.97;;;2.47;;
3781;SDS011;6881;49.962;7.718;2023-05-17T15:38:17;4.73;;;2.27;;
3781;SDS011;6881;49.962;7.718;2023-05-17T15:40:43;4.67;;;2.57;;
3781;SDS011;6881;49.962;7.718;2023-05-17T15:43:08;7.00;;;3.13;;
3781;SDS011;6881;49.962;7.718;2023-05-17T15:45:33;6.63;;;2.93;;
3781;SDS011;6881;49.962;7.718;2023-05-17T15:47:59;3.93;;;2.37;;